Alvin, Wisconsin
Current Conditions -  °F | °C
As of 9:35 PM on Saturday 25 Oct 2014 (Local Time) from KEGV Reporting Station
Clear Clear  
Wind Chill:   Ceiling: Unl
Heat Index:   Visibility: 10mi
Dew Point: -5°   Wind: 9mph
Humidity: 40%   Direction: 300°WNW
Pressure: 29.91"   Gusts: NA
Location:  45.9186°N, 88.7601°W
Report Text: KEGV 260235Z AUTO 30008KT 10SM CLR 08/M05 A2991 RMK AO2 T00801050
Loading
Personal Weather Stations






























Interactive Weather Map
Tropical Storm Tracking
New forecast layout! Learn more

10-Day Weather Forecast

Advertisements
Track Severe Weather on mobile